createdAt,value
2018-03-30T00:01:46.067Z,99.90
2018-03-30T00:04:13.532Z,99.90
2018-03-30T00:06:40.994Z,99.90
2018-03-30T00:09:08.506Z,99.90
2018-03-30T00:11:36.725Z,99.90
2018-03-30T00:14:04.218Z,99.90
2018-03-30T00:16:32.536Z,99.90
2018-03-30T00:19:00.030Z,99.90
2018-03-30T00:21:27.490Z,99.90
2018-03-30T00:23:55.034Z,99.90
2018-03-30T00:26:22.495Z,99.90
2018-03-30T00:28:49.951Z,99.90
2018-03-30T00:31:17.448Z,99.90
2018-03-30T00:33:45.678Z,99.90
2018-03-30T00:36:13.227Z,99.90
2018-03-30T00:38:40.703Z,99.90
2018-03-30T00:41:08.171Z,99.90
2018-03-30T00:43:36.816Z,99.90
2018-03-30T00:46:04.274Z,99.90
2018-03-30T00:48:32.792Z,99.90
2018-03-30T00:51:00.247Z,99.90
2018-03-30T00:53:39.595Z,99.90
2018-03-30T00:56:07.823Z,99.90
2018-03-30T00:58:35.291Z,99.90
2018-03-30T01:01:02.796Z,99.90
2018-03-30T01:03:31.023Z,99.90
2018-03-30T01:05:58.571Z,99.90
2018-03-30T01:08:26.046Z,99.90
2018-03-30T01:10:53.507Z,99.90
2018-03-30T01:13:21.015Z,99.90
2018-03-30T01:15:48.476Z,99.90
2018-03-30T01:18:15.995Z,99.90
2018-03-30T01:20:44.225Z,99.90
2018-03-30T01:23:11.679Z,99.90
2018-03-30T01:25:39.170Z,99.90
2018-03-30T01:28:06.631Z,99.90
2018-03-30T01:30:34.127Z,99.90
2018-03-30T01:33:01.596Z,99.90
2018-03-30T01:35:29.107Z,99.90
2018-03-30T01:37:56.562Z,99.90
2018-03-30T01:40:24.023Z,99.90
2018-03-30T01:42:52.287Z,99.90
2018-03-30T01:45:19.750Z,99.90
2018-03-30T01:47:47.247Z,99.90
2018-03-30T01:50:14.710Z,99.90
2018-03-30T01:52:42.231Z,99.90
2018-03-30T01:55:10.450Z,99.90
2018-03-30T01:57:37.914Z,99.90
2018-03-30T02:00:06.379Z,99.90
2018-03-30T02:02:33.840Z,99.90
2018-03-30T02:05:01.327Z,99.90
2018-03-30T02:07:28.781Z,99.90
2018-03-30T02:09:56.460Z,99.90
2018-03-30T02:12:23.907Z,99.90
2018-03-30T02:14:51.378Z,99.90
2018-03-30T02:17:18.886Z,99.90
2018-03-30T02:19:46.346Z,99.90
2018-03-30T02:22:13.854Z,99.90
2018-03-30T02:24:41.310Z,99.90
2018-03-30T02:27:09.778Z,99.90
2018-03-30T02:29:37.252Z,99.90
2018-03-30T02:32:05.495Z,99.90
2018-03-30T02:34:32.995Z,99.90
2018-03-30T02:37:00.463Z,99.90
2018-03-30T02:39:27.962Z,99.90
2018-03-30T02:41:55.426Z,99.90
2018-03-30T02:44:22.972Z,99.90
2018-03-30T02:46:50.429Z,99.90
2018-03-30T02:49:17.888Z,99.90
2018-03-30T02:51:45.390Z,99.90
2018-03-30T02:54:13.633Z,99.90
2018-03-30T02:56:41.119Z,99.90
2018-03-30T02:59:09.361Z,99.90
2018-03-30T03:01:36.887Z,99.90
2018-03-30T03:04:04.367Z,99.90
2018-03-30T03:06:31.820Z,99.90
2018-03-30T03:08:59.318Z,99.90
2018-03-30T03:11:27.547Z,99.90
2018-03-30T03:13:55.230Z,99.90
2018-03-30T03:16:23.450Z,99.90
2018-03-30T03:18:50.920Z,99.90
2018-03-30T03:21:18.423Z,99.90
2018-03-30T03:23:45.898Z,99.90
2018-03-30T03:26:14.183Z,99.90
2018-03-30T03:28:41.647Z,99.90
2018-03-30T03:31:09.111Z,99.90
2018-03-30T03:33:36.626Z,99.90
2018-03-30T03:36:04.088Z,99.90
2018-03-30T03:38:31.618Z,99.90
2018-03-30T03:40:59.074Z,99.90
2018-03-30T03:43:26.547Z,99.90
2018-03-30T03:45:54.054Z,99.90
2018-03-30T03:48:21.532Z,99.90
2018-03-30T03:50:49.222Z,99.90
2018-03-30T03:53:16.702Z,99.90
2018-03-30T03:55:44.943Z,99.90
2018-03-30T03:58:12.438Z,99.90
2018-03-30T04:00:40.672Z,99.90
2018-03-30T04:03:08.158Z,99.90
2018-03-30T04:05:36.377Z,99.90
2018-03-30T04:08:03.898Z,99.90
2018-03-30T04:10:32.132Z,99.90
2018-03-30T04:12:59.602Z,99.90
2018-03-30T04:15:27.100Z,99.90
2018-03-30T04:17:55.331Z,99.90
2018-03-30T04:20:22.850Z,99.90
2018-03-30T04:22:50.318Z,99.90
2018-03-30T04:25:17.791Z,99.90
2018-03-30T04:27:45.314Z,99.90
2018-03-30T04:30:12.787Z,99.90
2018-03-30T04:32:40.283Z,99.90
2018-03-30T04:35:07.843Z,99.90
2018-03-30T04:37:36.111Z,99.90
2018-03-30T04:40:03.583Z,99.90
2018-03-30T04:42:32.055Z,99.90
2018-03-30T04:44:59.531Z,99.90
2018-03-30T04:47:27.763Z,99.90
2018-03-30T04:49:55.262Z,99.90
2018-03-30T04:52:23.498Z,99.90
2018-03-30T04:54:50.993Z,99.90
2018-03-30T04:57:19.268Z,99.90
2018-03-30T04:59:47.548Z,99.90
2018-03-30T05:02:15.779Z,99.90
2018-03-30T05:04:43.230Z,99.90
2018-03-30T05:07:10.743Z,99.90
2018-03-30T05:09:38.210Z,99.90
2018-03-30T05:12:06.960Z,99.90
2018-03-30T05:14:34.410Z,99.90
2018-03-30T05:17:01.944Z,99.90
2018-03-30T05:19:29.406Z,99.90
2018-03-30T05:21:56.875Z,99.90
2018-03-30T05:24:24.378Z,99.90
2018-03-30T05:26:51.838Z,99.90
2018-03-30T05:29:19.329Z,99.90
2018-03-30T05:31:46.799Z,99.90
2018-03-30T05:34:14.294Z,99.90
2018-03-30T05:36:42.525Z,99.90
2018-03-30T05:39:10.860Z,99.90
2018-03-30T05:41:38.322Z,99.90
2018-03-30T05:44:05.794Z,99.90
2018-03-30T05:46:33.299Z,99.90
2018-03-30T05:49:01.594Z,99.90
2018-03-30T05:51:29.238Z,99.90
2018-03-30T05:53:57.601Z,99.90
2018-03-30T05:56:25.056Z,99.90
2018-03-30T05:58:52.564Z,99.90
2018-03-30T06:01:20.026Z,99.90
2018-03-30T06:03:47.746Z,99.90
2018-03-30T06:06:15.302Z,99.90
2018-03-30T06:08:42.769Z,99.90
2018-03-30T06:11:12.800Z,99.90
2018-03-30T06:13:41.023Z,99.90
2018-03-30T06:16:08.552Z,99.90
2018-03-30T06:18:36.017Z,99.90
2018-03-30T06:21:03.483Z,99.90
2018-03-30T06:23:30.991Z,99.90
2018-03-30T06:25:59.207Z,99.90
2018-03-30T06:28:26.697Z,99.90
2018-03-30T06:30:54.159Z,99.90
2018-03-30T06:33:21.828Z,99.90
2018-03-30T06:35:49.351Z,99.90
2018-03-30T06:38:16.843Z,99.90
2018-03-30T06:40:45.826Z,99.90
2018-03-30T06:43:13.309Z,99.90
2018-03-30T06:45:40.810Z,99.90
2018-03-30T06:48:08.261Z,99.90
2018-03-30T06:50:35.730Z,99.90
2018-03-30T06:53:03.209Z,99.90
2018-03-30T06:55:30.684Z,99.90
2018-03-30T06:57:58.957Z,99.90
2018-03-30T07:00:27.199Z,99.90
2018-03-30T07:02:54.699Z,99.90
2018-03-30T07:05:22.740Z,99.90
2018-03-30T07:07:50.271Z,99.90
2018-03-30T07:10:17.727Z,99.90
2018-03-30T07:12:45.186Z,99.90
2018-03-30T07:15:12.704Z,99.90
2018-03-30T07:17:40.923Z,99.90
2018-03-30T07:20:08.424Z,99.90
2018-03-30T07:22:36.722Z,99.90
2018-03-30T07:25:04.291Z,99.90
2018-03-30T07:27:31.751Z,99.90
2018-03-30T07:29:59.219Z,99.90
2018-03-30T07:32:26.709Z,99.90
2018-03-30T07:34:54.963Z,99.90
2018-03-30T07:37:22.459Z,99.90
2018-03-30T07:39:50.687Z,99.90
2018-03-30T07:42:18.215Z,99.90
2018-03-30T07:44:45.674Z,99.90
2018-03-30T07:47:13.139Z,99.90
2018-03-30T07:49:40.629Z,99.90
2018-03-30T07:52:08.090Z,99.90
2018-03-30T07:54:36.372Z,99.90
2018-03-30T07:57:03.836Z,99.90
2018-03-30T07:59:31.359Z,99.90
2018-03-30T08:01:58.831Z,99.90
2018-03-30T08:04:26.279Z,99.90
2018-03-30T08:06:53.778Z,99.90
2018-03-30T08:09:22.016Z,99.90
2018-03-30T08:11:49.687Z,99.90
2018-03-30T08:14:17.151Z,99.90
2018-03-30T08:16:44.610Z,99.90
2018-03-30T08:19:12.112Z,99.90
2018-03-30T08:21:39.570Z,99.90
2018-03-30T08:24:07.063Z,99.90
2018-03-30T08:26:34.538Z,99.90
2018-03-30T08:29:03.570Z,99.90
2018-03-30T08:31:31.043Z,99.90
2018-03-30T08:33:58.510Z,99.90
2018-03-30T08:36:26.005Z,99.90
2018-03-30T08:38:53.458Z,99.90
2018-03-30T08:41:21.097Z,99.90
2018-03-30T08:43:48.555Z,99.90
2018-03-30T08:46:16.030Z,99.90
2018-03-30T08:48:43.531Z,99.90
2018-03-30T08:51:10.996Z,99.90
2018-03-30T08:53:38.536Z,99.90
2018-03-30T08:56:05.998Z,99.90
2018-03-30T08:58:33.497Z,99.90
2018-03-30T09:01:00.988Z,99.90
2018-03-30T09:03:29.212Z,99.90
2018-03-30T09:05:56.908Z,99.90
2018-03-30T09:08:24.370Z,99.90
2018-03-30T09:10:51.827Z,99.90
2018-03-30T09:13:19.328Z,99.90
2018-03-30T09:15:46.811Z,99.90
2018-03-30T09:18:14.344Z,99.90
2018-03-30T09:20:41.814Z,99.90
2018-03-30T09:23:09.266Z,99.90
2018-03-30T09:25:36.776Z,99.90
2018-03-30T09:28:05.031Z,99.90
2018-03-30T09:30:32.566Z,99.90
2018-03-30T09:33:00.029Z,99.90
2018-03-30T09:35:27.504Z,99.90
2018-03-30T09:37:54.993Z,99.90
2018-03-30T09:40:22.454Z,99.90
2018-03-30T09:42:49.958Z,99.90
2018-03-30T09:45:17.435Z,99.90
2018-03-30T09:47:44.959Z,99.90
2018-03-30T09:50:12.440Z,99.90
2018-03-30T09:52:39.898Z,99.90
2018-03-30T09:55:07.390Z,99.90
2018-03-30T09:57:35.635Z,99.90
2018-03-30T10:00:03.290Z,99.90
2018-03-30T10:02:31.524Z,99.90
2018-03-30T10:05:00.476Z,99.90
2018-03-30T10:07:28.738Z,99.90
2018-03-30T10:09:56.207Z,99.90
2018-03-30T10:12:24.626Z,99.90
2018-03-30T10:14:55.293Z,99.90
2018-03-30T10:17:22.768Z,99.90
2018-03-30T10:19:51.025Z,99.90
2018-03-30T10:22:18.481Z,99.90
2018-03-30T10:24:46.001Z,99.90
2018-03-30T10:27:13.459Z,99.90
2018-03-30T10:29:40.989Z,99.90
2018-03-30T10:32:09.220Z,99.90
2018-03-30T10:34:36.675Z,99.90
2018-03-30T10:37:04.175Z,99.90
2018-03-30T10:39:32.407Z,99.90
2018-03-30T10:41:59.911Z,99.90
2018-03-30T10:44:28.157Z,99.90
2018-03-30T10:46:55.684Z,99.90
2018-03-30T10:49:23.142Z,99.90
2018-03-30T10:51:50.610Z,99.90
2018-03-30T10:54:18.106Z,99.90
2018-03-30T10:56:46.334Z,99.90
2018-03-30T10:59:13.871Z,99.90
2018-03-30T11:01:41.313Z,99.90
2018-03-30T11:04:08.851Z,99.90
2018-03-30T11:06:37.075Z,99.90
2018-03-30T11:09:04.530Z,99.90
2018-03-30T11:11:32.027Z,99.90
2018-03-30T11:14:00.266Z,99.90
2018-03-30T11:16:27.758Z,99.90
2018-03-30T11:18:55.207Z,99.90
2018-03-30T11:21:22.752Z,99.70
2018-03-30T11:23:50.219Z,99.90
2018-03-30T11:26:17.684Z,99.90
2018-03-30T11:28:45.184Z,99.90
2018-03-30T11:31:12.679Z,99.90
2018-03-30T11:33:40.203Z,99.90
2018-03-30T11:36:07.712Z,99.80
2018-03-30T11:38:35.217Z,99.90
2018-03-30T11:41:02.735Z,99.90
2018-03-30T11:43:30.186Z,97.60
2018-03-30T11:45:57.727Z,96.40
2018-03-30T11:48:25.199Z,96.40
2018-03-30T11:50:52.657Z,97.90
2018-03-30T11:53:20.183Z,95.80
2018-03-30T11:55:47.634Z,94.90
2018-03-30T11:58:15.314Z,95.50
2018-03-30T12:00:43.718Z,94.40
2018-03-30T12:03:11.951Z,96.30
2018-03-30T12:05:39.452Z,96.20
2018-03-30T12:08:07.674Z,96.30
2018-03-30T12:10:35.178Z,96.30
2018-03-30T12:13:02.644Z,96.50
2018-03-30T12:15:30.951Z,96.50
2018-03-30T12:17:58.417Z,96.60
2018-03-30T12:20:26.150Z,96.00
2018-03-30T12:22:53.617Z,96.90
2018-03-30T12:25:21.113Z,96.10
2018-03-30T12:27:48.601Z,96.80
2018-03-30T12:30:16.063Z,97.40
2018-03-30T12:32:44.530Z,96.40
2018-03-30T12:35:12.759Z,97.70
2018-03-30T12:37:40.235Z,97.60
2018-03-30T12:40:07.740Z,95.80
2018-03-30T12:42:35.971Z,94.70
2018-03-30T12:45:03.474Z,94.50
2018-03-30T12:47:31.732Z,94.10
2018-03-30T12:50:00.018Z,94.60
2018-03-30T12:52:28.258Z,92.50
2018-03-30T12:54:55.719Z,92.30
2018-03-30T12:57:23.232Z,93.90
2018-03-30T12:59:50.700Z,95.20
2018-03-30T13:02:18.400Z,96.20
2018-03-30T13:04:47.373Z,93.50
2018-03-30T13:07:14.842Z,93.60
2018-03-30T13:09:42.339Z,94.40
2018-03-30T13:12:10.578Z,96.30
2018-03-30T13:14:38.117Z,96.20
2018-03-30T13:17:05.583Z,94.50
2018-03-30T13:19:33.038Z,94.40
2018-03-30T13:22:00.534Z,94.90
2018-03-30T13:24:28.766Z,96.10
2018-03-30T13:26:56.263Z,96.20
2018-03-30T13:29:24.490Z,94.90
2018-03-30T13:31:52.183Z,94.80
2018-03-30T13:34:19.656Z,95.60
2018-03-30T13:36:47.890Z,95.10
2018-03-30T13:39:15.397Z,95.10
2018-03-30T13:41:43.682Z,95.50
2018-03-30T13:44:11.169Z,95.80
2018-03-30T13:46:38.644Z,96.70
2018-03-30T13:49:06.203Z,96.30
2018-03-30T13:51:43.579Z,97.60
2018-03-30T13:54:13.787Z,96.60
2018-03-30T13:59:39.561Z,95.30
2018-03-30T14:02:13.213Z,96.50
2018-03-30T14:04:44.767Z,96.50
2018-03-30T14:07:42.607Z,96.40
2018-03-30T14:10:15.603Z,95.20
2018-03-30T14:12:46.831Z,95.10
2018-03-30T14:15:17.954Z,94.60
2018-03-30T14:20:46.966Z,94.50
2018-03-30T14:26:12.330Z,94.50
2018-03-30T14:28:46.118Z,95.60
2018-03-30T14:34:10.736Z,97.20
2018-03-30T14:36:45.857Z,96.30
2018-03-30T14:39:14.240Z,96.30
2018-03-30T14:41:42.469Z,97.10
2018-03-30T14:44:10.825Z,97.00
2018-03-30T14:46:39.834Z,97.00
2018-03-30T14:49:09.286Z,97.70
2018-03-30T14:51:45.087Z,98.60
2018-03-30T14:54:14.167Z,98.60
2018-03-30T14:56:45.659Z,97.30
2018-03-30T14:59:15.542Z,97.50
2018-03-30T15:01:50.407Z,97.50
2018-03-30T15:07:33.566Z,99.20
2018-03-30T15:10:01.916Z,99.90
2018-03-30T15:12:32.988Z,99.90
2018-03-30T15:15:19.674Z,99.20
2018-03-30T15:17:50.738Z,99.10
2018-03-30T15:20:27.431Z,99.50
2018-03-30T15:22:58.905Z,99.40
2018-03-30T15:28:36.563Z,98.80
2018-03-30T15:31:29.818Z,99.10
2018-03-30T15:34:00.751Z,99.10
2018-03-30T15:36:33.683Z,99.30
2018-03-30T15:39:01.149Z,99.20
2018-03-30T15:41:29.391Z,99.10
2018-03-30T15:43:57.635Z,99.90
2018-03-30T15:46:37.764Z,99.90
2018-03-30T15:49:05.237Z,99.90
2018-03-30T15:51:47.639Z,99.90
2018-03-30T15:54:14.606Z,99.90
2018-03-30T15:56:45.703Z,99.90
2018-03-30T15:59:15.740Z,99.90
2018-03-30T16:01:43.251Z,99.50
2018-03-30T16:04:10.728Z,99.90
2018-03-30T16:06:38.182Z,99.90
2018-03-30T16:09:07.504Z,99.90
2018-03-30T16:11:39.834Z,99.90
2018-03-30T16:14:08.113Z,99.40
2018-03-30T16:16:35.635Z,99.30
2018-03-30T16:19:03.386Z,99.80
2018-03-30T16:21:30.406Z,99.80
2018-03-30T16:23:58.099Z,99.90
2018-03-30T16:26:25.135Z,99.90
2018-03-30T16:28:52.099Z,99.90
2018-03-30T16:31:19.162Z,99.90
2018-03-30T16:33:46.121Z,99.90
2018-03-30T16:36:13.136Z,99.90
2018-03-30T16:38:40.154Z,99.90
2018-03-30T16:41:07.145Z,99.90
2018-03-30T16:43:35.938Z,99.90
2018-03-30T16:46:04.529Z,99.90
2018-03-30T16:48:32.340Z,99.90
2018-03-30T16:50:59.335Z,99.90
2018-03-30T16:53:27.065Z,99.90
2018-03-30T16:55:54.262Z,99.90
2018-03-30T16:58:21.269Z,99.90
2018-03-30T17:00:48.236Z,99.90
2018-03-30T17:03:16.030Z,99.90
2018-03-30T17:05:42.998Z,99.90
2018-03-30T17:08:10.190Z,99.90
2018-03-30T17:10:37.937Z,99.90
2018-03-30T17:13:04.908Z,99.90
2018-03-30T17:15:32.688Z,99.90
2018-03-30T17:17:59.679Z,99.90
2018-03-30T17:20:26.707Z,99.90
2018-03-30T17:22:53.702Z,99.90
2018-03-30T17:25:21.438Z,99.90
2018-03-30T17:27:48.461Z,99.90
2018-03-30T17:30:15.489Z,99.90
2018-03-30T17:32:43.432Z,99.90
2018-03-30T17:35:10.415Z,99.90
2018-03-30T17:37:37.402Z,99.90
2018-03-30T17:40:04.405Z,99.90
2018-03-30T17:42:31.384Z,99.90
2018-03-30T17:44:58.390Z,99.90
2018-03-30T17:47:25.367Z,99.90
2018-03-30T17:49:52.382Z,99.90
2018-03-30T17:52:19.363Z,99.90
2018-03-30T17:54:46.343Z,99.90
2018-03-30T17:57:13.356Z,99.90
2018-03-30T17:59:40.332Z,99.90
2018-03-30T18:02:08.134Z,99.90
2018-03-30T18:04:35.120Z,99.90
2018-03-30T18:07:02.871Z,99.90
2018-03-30T18:09:29.871Z,99.90
2018-03-30T18:11:56.854Z,99.90
2018-03-30T18:14:23.865Z,99.90
2018-03-30T18:16:50.839Z,99.90
2018-03-30T18:19:17.875Z,99.90
2018-03-30T18:21:44.863Z,99.90
2018-03-30T18:24:12.607Z,99.90
2018-03-30T18:26:39.612Z,99.90
2018-03-30T18:29:06.601Z,99.90
2018-03-30T18:31:33.607Z,99.90
2018-03-30T18:34:00.585Z,99.90
2018-03-30T18:36:27.634Z,99.90
2018-03-30T18:38:55.390Z,99.90
2018-03-30T18:41:22.371Z,99.90
2018-03-30T18:43:49.420Z,99.90
2018-03-30T18:46:16.391Z,99.90
2018-03-30T18:48:43.590Z,99.90
2018-03-30T18:51:10.562Z,99.90
2018-03-30T18:53:37.544Z,99.90
2018-03-30T18:56:04.557Z,99.90
2018-03-30T18:58:32.294Z,99.90
2018-03-30T19:00:59.328Z,99.90
2018-03-30T19:03:26.291Z,99.90
2018-03-30T19:05:54.082Z,99.90
2018-03-30T19:08:21.089Z,99.90
2018-03-30T19:10:48.869Z,99.90
2018-03-30T19:13:16.613Z,99.90
2018-03-30T19:15:44.596Z,99.90
2018-03-30T19:18:12.351Z,99.90
2018-03-30T19:20:39.342Z,99.90
2018-03-30T19:23:06.337Z,99.90
2018-03-30T19:25:33.435Z,99.90
2018-03-30T19:28:00.579Z,99.90
2018-03-30T19:30:27.569Z,99.90
2018-03-30T19:32:54.543Z,99.90
2018-03-30T19:35:22.331Z,99.90
2018-03-30T19:37:49.324Z,99.90
2018-03-30T19:40:16.354Z,99.90
2018-03-30T19:42:43.396Z,99.90
2018-03-30T19:45:11.091Z,99.90
2018-03-30T19:47:38.119Z,99.90
2018-03-30T19:50:05.107Z,99.90
2018-03-30T19:52:32.914Z,99.90
2018-03-30T19:54:59.920Z,99.90
2018-03-30T19:57:27.663Z,99.90
2018-03-30T19:59:55.439Z,99.90
2018-03-30T20:02:23.179Z,99.90
2018-03-30T20:04:50.959Z,99.90
2018-03-30T20:07:18.707Z,99.90
2018-03-30T20:09:47.247Z,99.90
2018-03-30T20:12:14.235Z,99.90
2018-03-30T20:14:41.267Z,99.90
2018-03-30T20:17:08.239Z,99.90
2018-03-30T20:19:35.995Z,99.90
2018-03-30T20:22:03.053Z,99.90
2018-03-30T20:24:30.784Z,99.90
2018-03-30T20:26:57.822Z,99.90
2018-03-30T20:29:24.798Z,99.90
2018-03-30T20:31:51.846Z,99.90
2018-03-30T20:34:19.600Z,99.90
2018-03-30T20:36:46.560Z,99.90
2018-03-30T20:39:14.356Z,99.90
2018-03-30T20:41:41.319Z,99.90
2018-03-30T20:44:08.513Z,99.90
2018-03-30T20:46:35.480Z,99.90
2018-03-30T20:49:02.459Z,99.90
2018-03-30T20:51:29.457Z,99.90
2018-03-30T20:53:57.186Z,99.90
2018-03-30T20:56:24.206Z,99.90
2018-03-30T20:58:51.174Z,99.90
2018-03-30T21:01:18.156Z,99.90
2018-03-30T21:03:45.931Z,99.90
2018-03-30T21:06:12.897Z,99.90
2018-03-30T21:08:39.940Z,99.90
2018-03-30T21:11:06.903Z,99.90
2018-03-30T21:13:33.889Z,99.90
2018-03-30T21:16:01.664Z,99.90
2018-03-30T21:18:29.401Z,99.90
2018-03-30T21:20:56.462Z,99.90
2018-03-30T21:23:23.463Z,99.90
2018-03-30T21:25:50.419Z,99.90
2018-03-30T21:28:17.417Z,99.90
2018-03-30T21:30:45.158Z,99.90
2018-03-30T21:33:12.945Z,99.90
2018-03-30T21:35:40.692Z,99.90
2018-03-30T21:38:08.516Z,99.90
2018-03-30T21:40:35.475Z,99.90
2018-03-30T21:43:02.438Z,99.90
2018-03-30T21:45:29.440Z,99.90
2018-03-30T21:47:56.419Z,99.90
2018-03-30T21:50:23.454Z,99.90
2018-03-30T21:52:50.408Z,99.90
2018-03-30T21:55:17.431Z,99.90
2018-03-30T21:57:44.402Z,99.90
2018-03-30T22:00:11.368Z,99.90
2018-03-30T22:02:39.147Z,99.90
2018-03-30T22:05:06.933Z,99.90
2018-03-30T22:07:34.585Z,99.90
2018-03-30T22:10:01.571Z,99.90
2018-03-30T22:12:28.591Z,99.90
2018-03-30T22:14:55.625Z,99.90
2018-03-30T22:17:22.575Z,99.90
2018-03-30T22:19:49.618Z,99.90
2018-03-30T22:22:16.573Z,99.90
2018-03-30T22:24:43.615Z,99.90
2018-03-30T22:27:10.579Z,99.90
2018-03-30T22:29:37.553Z,99.90
2018-03-30T22:32:05.328Z,99.90
2018-03-30T22:34:33.055Z,99.90
2018-03-30T22:37:00.062Z,99.90
2018-03-30T22:39:27.035Z,99.90
2018-03-30T22:41:54.087Z,99.90
2018-03-30T22:44:21.068Z,99.90
2018-03-30T22:46:48.796Z,99.90
2018-03-30T22:49:15.807Z,99.90
2018-03-30T22:51:42.782Z,99.90
2018-03-30T22:54:09.787Z,99.90
2018-03-30T22:56:36.751Z,99.90
2018-03-30T22:59:03.939Z,99.90
2018-03-30T23:01:30.907Z,99.90
2018-03-30T23:03:58.651Z,99.90
2018-03-30T23:06:25.699Z,99.90
2018-03-30T23:08:52.667Z,99.90
2018-03-30T23:11:20.468Z,99.90
2018-03-30T23:13:47.432Z,99.90
2018-03-30T23:16:14.394Z,99.90
2018-03-30T23:18:41.444Z,99.90
2018-03-30T23:21:08.507Z,99.90
2018-03-30T23:23:36.304Z,99.90
2018-03-30T23:26:03.285Z,99.90
2018-03-30T23:28:30.257Z,99.90
2018-03-30T23:30:58.051Z,99.90
2018-03-30T23:33:25.030Z,99.90
2018-03-30T23:35:52.060Z,99.90
2018-03-30T23:38:19.049Z,99.90
2018-03-30T23:40:46.034Z,99.90
2018-03-30T23:43:13.059Z,99.90
2018-03-30T23:45:40.804Z,99.90
2018-03-30T23:48:07.821Z,99.90
2018-03-30T23:50:34.802Z,99.90
2018-03-30T23:53:01.834Z,99.90
2018-03-30T23:55:30.323Z,99.90
2018-03-30T23:57:58.062Z,99.90
